Hyderabad, India

7:00 PM IST on July 22, 2014 (GMT +0530)
Hyderabad (VOHY) Elev 1788 ft | 17.45 °N, 78.47 °E | Change Station

Current weather conditions updated 50 minutes ago

Mostly Cloudy
Mostly Cloudy
81 °F
Feels Like 82 °F
N
12
Wind Variable Wind from West

Tomorrow is forecast to be nearly the same temperature as today.

Today
High -- | Low -- °F
--% Chance of Precip.
Yesterday
High -- | Low -- °F
Precip. -- in
5:52 AM 6:52 PM
Waning Crescent, 17% visible
Pressure 29.65 in
Visibility 3.7 miles
Clouds Scattered Clouds 1500 ft
Scattered Clouds 2000 ft
Mostly Cloudy 8000 ft
Heat Index 82 °F
Dew Point 64 °F
Humidity 58%
Rainfall 0.00 in
Snow Depth Not available.
UV 0 out of 12
Pollen Not available.
Air Quality Not available.
Flu Activity Not available.
METAR VOHY 221240Z 28010KT 6000 SCT015 SCT020 BKN080 27/18 Q1004 NOSIG

More Conditions Fewer Conditions

Pressure 29.65 in
Visibility 3.7 miles
Clouds Scattered Clouds 1500 ft
Scattered Clouds 2000 ft
Mostly Cloudy 8000 ft
Heat Index 82 °F
Dew Point 64 °F
Humidity 58%
Rainfall 0.00 in
Snow Depth Not available.
UV 0 out of 12
Pollen Not available.
Air Quality Not available.
Flu Activity Not available.
METAR VOHY 221240Z 28010KT 6000 SCT015 SCT020 BKN080 27/18 Q1004 NOSIG

More Conditions Fewer Conditions

10-Day Weather Forecast

LIGHTNING

Thunderstorms are forecast for your area. Cloud conditions might be right for producing strikes in the next few days, though lightning itself cannot be forecasted.

Lightning is a visible electrical discharge produced by a thunderstorm, based on the build up of oppositely charged particles within a cloud and from cloud to ground.

Know how to stay safe in a lightning storm.

Check out these Lightning WunderPhotos!

Almanac

Astronomy

Jul. 22, 2014 Rise Set
Actual Time 5:52 AM IST 6:52 PM IST
Civil Twilight 5:28 AM IST 7:16 PM IST
Nautical Twilight 5:00 AM IST 7:44 PM IST
Astronomical Twilight 4:32 AM IST 8:12 PM IST
Moon 1:57 AM IST 3:10 PM IST
Length of Visible Light 13h 47m
Length of Day
13h 00m
Tomorrow will be 0m 35s shorter.
Waning Crescent, 17% of the Moon is Illuminated
Today
Waning Crescent
Jul 26
New
Aug 3
First Quarter
Aug 10
Full
Aug 17
Last Quarter

Yesterday's Extremes

Country Highs Country Lows

Community

WunderPhotos

Upload Photos

1,736,229 photos uploaded!

Nearby

Snow Depth

Not available.

Earthquake Activity

City Distance Mag. Time & Date
No recent earthquake activity has been reported nearby.
Minimum magnitude displayed is 2.5.

Coastal Water Temperatures

Place Temperature
No Stations Reporting

Nearby Weather Stations

There are no personal weather stations in this area.